Time;durP1;ratioP1;P1;durP2;ratioP2;P2;SDS_P1;SDS_P2;PMS_P1;PMS_P2;Temp;Humidity;BMP_temperature;BMP_pressure;BME280_temperature;BME280_humidity;BME280_pressure;Samples;Min_cycle;Max_cycle;Signal;HPM_P1;HPM_P2
2022/05/29 00:00:45;;;;;;;5.93;3.80;;;;;;;-143.84;73.81;45045.25;5112383;27;20485;-75
2022/05/29 00:03:12;;;;;;;2.80;2.70;;;;;;;-143.84;74.11;45047.16;5111416;27;20431;-75
2022/05/29 00:05:40;;;;;;;3.67;3.40;;;;;;;-143.84;73.98;45060.50;5112204;28;20909;-76
2022/05/29 00:08:12;;;;;;;4.67;3.37;;;;;;;-143.84;73.73;45060.50;5112303;28;20443;-75
2022/05/29 00:10:42;;;;;;;4.53;3.20;;;;;;;-143.84;73.33;45052.88;5112589;28;20443;-75
2022/05/29 00:13:11;;;;;;;3.87;3.67;;;;;;;-143.84;73.49;45039.53;5112168;28;20469;-75
2022/05/29 00:15:39;;;;;;;3.60;3.27;;;;;;;-143.84;73.48;45060.50;5111951;28;20867;-75
2022/05/29 00:18:06;;;;;;;5.97;3.17;;;;;;;-143.84;73.68;45073.81;5112115;28;20522;-75
2022/05/29 00:20:34;;;;;;;3.83;3.00;;;;;;;-143.84;73.75;45054.78;5111705;28;20835;-75
2022/05/29 00:23:02;;;;;;;3.70;3.10;;;;;;;-143.84;74.12;45066.22;5112207;28;20515;-75
2022/05/29 00:25:29;;;;;;;4.30;4.00;;;;;;;-143.84;74.69;45064.31;5111455;28;21187;-75
2022/05/29 00:27:58;;;;;;;6.37;4.03;;;;;;;-143.84;74.64;45070.00;5111888;28;20495;-75
2022/05/29 00:30:25;;;;;;;4.03;3.73;;;;;;;-143.84;74.74;45077.63;5111736;28;20443;-75
2022/05/29 00:32:52;;;;;;;6.20;2.97;;;;;;;-143.84;75.22;45068.13;5111724;28;21035;-75
2022/05/29 00:35:20;;;;;;;6.20;3.43;;;;;;;-143.84;75.33;45050.97;5111957;28;20818;-75
2022/05/29 00:37:47;;;;;;;6.60;3.47;;;;;;;-143.84;75.36;45056.69;5111962;28;20442;-75
2022/05/29 00:40:31;;;;;;;9.13;3.20;;;;;;;-143.84;75.38;45049.06;5110865;28;21388;-75
2022/05/29 00:43:00;;;;;;;3.57;3.20;;;;;;;-143.84;75.24;45052.88;5111715;28;20419;-75
2022/05/29 00:45:29;;;;;;;6.33;3.90;;;;;;;-143.84;75.44;45071.91;5111913;28;20531;-75
2022/05/29 00:47:56;;;;;;;3.23;3.00;;;;;;;-143.84;75.90;45070.00;5111994;28;21224;-75
2022/05/29 00:50:25;;;;;;;6.00;3.77;;;;;;;-143.84;76.06;45049.06;5111613;28;20484;-75
2022/05/29 00:52:52;;;;;;;5.60;3.80;;;;;;;-143.84;76.49;45068.13;5111522;28;20439;-75
2022/05/29 00:55:25;;;;;;;5.77;3.70;;;;;;;-143.84;76.82;45081.44;5111434;28;20464;-75
2022/05/29 00:57:55;;;;;;;5.63;4.23;;;;;;;-143.84;77.30;45070.00;5111619;28;20431;-75
2022/05/29 01:00:27;;;;;;;4.70;4.33;;;;;;;-143.84;77.61;45073.81;5111002;28;20439;-75
2022/05/29 01:02:55;;;;;;;5.07;4.07;;;;;;;-143.84;78.24;45060.50;5110976;28;20443;-75
2022/05/29 01:05:25;;;;;;;5.17;3.93;;;;;;;-143.84;78.14;45090.97;5111015;28;20538;-75
2022/05/29 01:07:56;;;;;;;4.83;4.43;;;;;;;-143.84;78.27;45050.97;5110824;28;20502;-75
2022/05/29 01:10:33;;;;;;;5.60;4.23;;;;;;;-143.84;78.23;45037.66;5110950;28;20443;-75
2022/05/29 01:13:08;;;;;;;4.30;4.00;;;;;;;-143.84;78.28;45079.53;5110544;28;20880;-75
2022/05/29 01:15:49;;;;;;;5.73;4.30;;;;;;;-143.84;78.97;45094.78;5109825;28;20479;-75
2022/05/29 01:18:29;;;;;;;4.07;3.63;;;;;;;-143.84;80.19;45064.31;5110284;28;20504;-75
2022/05/29 01:21:11;;;;;;;4.20;4.00;;;;;;;-143.84;80.45;45098.56;5109706;27;20940;-75
2022/05/29 01:23:58;;;;;;;9.03;4.40;;;;;;;-143.84;80.62;45064.31;5110132;28;20516;-75
2022/05/29 01:27:06;;;;;;;4.53;4.23;;;;;;;-143.84;80.57;45052.88;5109446;28;20561;-75
2022/05/29 01:29:46;;;;;;;5.00;4.67;;;;;;;-143.84;79.87;45071.91;5043903;28;20447;-74
2022/05/29 01:32:16;;;;;;;6.70;4.80;;;;;;;-143.84;80.71;45083.34;5110326;28;20441;-75
2022/05/29 01:34:48;;;;;;;5.40;4.93;;;;;;;-143.84;80.90;45068.13;5110115;28;20429;-75
2022/05/29 01:37:21;;;;;;;5.97;5.27;;;;;;;-143.84;81.17;45068.13;5110604;28;20435;-75
2022/05/29 01:39:59;;;;;;;5.57;4.97;;;;;;;-143.84;81.56;45125.22;5110375;28;20454;-75
2022/05/29 01:42:45;;;;;;;6.60;5.20;;;;;;;-143.84;81.42;45054.78;5110393;28;20438;-75
2022/05/29 01:45:30;;;;;;;6.53;5.50;;;;;;;-143.84;81.90;45071.91;5110116;28;20431;-75
2022/05/29 01:48:05;;;;;;;6.00;5.20;;;;;;;-143.84;82.35;45066.22;5110594;28;20969;-75
2022/05/29 01:50:37;;;;;;;5.70;5.27;;;;;;;-143.84;82.74;45073.81;5110496;28;20509;-75
2022/05/29 01:53:13;;;;;;;8.70;4.73;;;;;;;-143.84;82.77;45083.34;5110261;28;20928;-75
2022/05/29 01:55:45;;;;;;;5.60;5.20;;;;;;;-143.84;82.93;45083.34;5109892;28;21031;-75
2022/05/29 01:58:17;;;;;;;6.47;5.87;;;;;;;-143.84;83.40;45092.88;5109811;28;20439;-75
2022/05/29 02:00:49;;;;;;;12.63;5.97;;;;;;;-143.84;84.08;45056.69;5110672;28;20508;-75
2022/05/29 02:03:21;;;;;;;7.13;6.43;;;;;;;-143.84;84.45;45070.00;5109069;28;20848;-75
2022/05/29 02:05:52;;;;;;;9.57;6.30;;;;;;;-143.84;84.92;45081.44;5109407;28;20467;-75
2022/05/29 02:08:24;;;;;;;10.20;6.63;;;;;;;-143.84;85.11;45068.13;5110017;28;20447;-75
2022/05/29 02:10:55;;;;;;;7.07;5.87;;;;;;;-143.84;85.50;45037.66;5109984;28;20442;-75
2022/05/29 02:13:29;;;;;;;6.70;6.00;;;;;;;-143.84;85.63;45052.88;5110250;28;20520;-75
2022/05/29 02:16:04;;;;;;;10.73;7.90;;;;;;;-143.84;86.11;45062.41;5109638;28;20481;-75
2022/05/29 02:18:36;;;;;;;9.53;7.30;;;;;;;-143.84;86.43;45033.84;5109655;28;20503;-75
2022/05/29 02:21:07;;;;;;;11.67;9.47;;;;;;;-143.84;86.99;45050.97;5109959;28;20435;-75
2022/05/29 02:23:41;;;;;;;11.87;9.70;;;;;;;-143.84;87.45;45098.56;5110024;28;20477;-75
2022/05/29 02:26:12;;;;;;;17.53;9.77;;;;;;;-143.84;87.88;45071.91;5109236;28;20463;-75
2022/05/29 02:28:45;;;;;;;9.87;8.87;;;;;;;-143.84;88.05;45062.41;5109723;28;21080;-75
2022/05/29 02:31:23;;;;;;;11.77;10.60;;;;;;;-143.84;88.67;45062.41;5109558;28;21337;-75
2022/05/29 02:33:58;;;;;;;22.60;14.13;;;;;;;-143.84;90.15;45070.00;5109948;28;20447;-75
2022/05/29 02:36:36;;;;;;;19.37;13.20;;;;;;;-143.84;91.34;45047.16;5109705;28;20446;-75
2022/05/29 02:39:31;;;;;;;19.10;15.13;;;;;;;-143.84;92.66;45022.41;5109398;28;20438;-75
2022/05/29 02:42:11;;;;;;;17.17;14.83;;;;;;;-143.84;92.99;45045.25;5109515;28;20442;-74
2022/05/29 02:44:43;;;;;;;17.73;15.43;;;;;;;-143.84;92.80;45028.13;5109309;28;20438;-74
2022/05/29 02:50:21;;;;;;;16.63;14.43;;;;;;;-143.84;92.94;45030.03;5106946;27;20541;-75
2022/05/29 02:52:52;;;;;;;21.43;15.00;;;;;;;-143.84;92.84;45018.59;5107274;28;20990;-75
2022/05/29 02:55:19;;;;;;;15.97;14.30;;;;;;;-143.84;92.68;45022.41;5107229;28;20589;-75
2022/05/29 02:57:48;;;;;;;15.80;14.10;;;;;;;-143.84;92.58;45024.31;5107449;28;20492;-76
2022/05/29 03:00:16;;;;;;;19.53;14.13;;;;;;;-143.84;92.51;45045.25;5107032;28;21144;-76
2022/05/29 03:02:56;;;;;;;14.50;13.00;;;;;;;-143.84;92.32;45007.19;5106848;28;20435;-76
2022/05/29 03:05:31;;;;;;;15.53;14.03;;;;;;;-143.84;92.04;45035.75;5106295;28;20471;-76
2022/05/29 03:08:12;;;;;;;20.27;14.43;;;;;;;-143.84;91.81;45026.22;5107117;28;20925;-76
2022/05/29 03:10:43;;;;;;;17.23;14.23;;;;;;;-143.84;91.44;45050.97;5106799;28;20450;-76
2022/05/29 03:13:15;;;;;;;19.90;13.60;;;;;;;-143.84;90.68;45064.31;5107335;28;20419;-76
2022/05/29 03:15:55;;;;;;;17.70;14.97;;;;;;;-143.84;90.47;45049.06;5106907;28;20516;-76
2022/05/29 03:18:39;;;;;;;16.47;13.10;;;;;;;-143.84;89.78;45047.16;5108324;28;20925;-78
2022/05/29 03:21:15;;;;;;;13.97;12.40;;;;;;;-143.84;88.70;45043.34;5109016;28;20762;-78
2022/05/29 03:23:51;;;;;;;12.60;11.30;;;;;;;-143.84;87.70;45045.25;5108835;28;21095;-78
2022/05/29 03:26:25;;;;;;;16.30;11.73;;;;;;;-143.84;87.56;45071.91;5106591;28;20813;-78
2022/05/29 03:28:59;;;;;;;13.30;11.87;;;;;;;-143.84;87.56;45073.81;5107154;28;20474;-78
2022/05/29 03:31:30;;;;;;;13.70;11.30;;;;;;;-143.84;86.10;45026.22;5108602;28;20442;-78
2022/05/29 03:33:58;;;;;;;18.60;10.97;;;;;;;-143.84;86.08;45041.44;5108001;28;20462;-77
2022/05/29 03:36:28;;;;;;;13.63;10.53;;;;;;;-143.84;84.73;45064.31;5107556;28;20509;-77
2022/05/29 03:38:55;;;;;;;11.30;9.53;;;;;;;-143.84;83.00;45081.44;5107853;28;20929;-78
2022/05/29 03:41:28;;;;;;;10.60;8.80;;;;;;;-143.84;80.07;45037.66;5107073;28;20431;-76
2022/05/29 03:43:55;;;;;;;10.17;9.17;;;;;;;-143.84;76.43;45039.53;5106682;28;20530;-77
2022/05/29 03:46:22;;;;;;;8.37;7.47;;;;;;;-143.84;72.59;45041.44;5107105;28;20447;-77
2022/05/29 03:48:50;;;;;;;7.93;7.23;;;;;;;-143.84;69.55;45031.94;5106268;28;20490;-75
2022/05/29 03:51:17;;;;;;;9.73;6.60;;;;;;;-143.84;68.22;45043.34;5106422;28;20443;-77
2022/05/29 03:53:46;;;;;;;10.77;6.20;;;;;;;-143.84;66.08;45030.03;5106509;28;20451;-77
2022/05/29 03:56:13;;;;;;;8.40;6.80;;;;;;;-143.84;65.41;45047.16;5106189;28;20969;-77
2022/05/29 03:58:40;;;;;;;6.37;5.77;;;;;;;-143.84;65.28;45024.31;5106071;28;20435;-77
2022/05/29 04:01:07;;;;;;;8.23;5.60;;;;;;;-143.84;64.71;45014.78;5084113;28;20445;-76
2022/05/29 04:03:35;;;;;;;7.20;5.20;;;;;;;-143.84;64.99;45049.06;5072519;28;20868;-76
2022/05/29 04:06:02;;;;;;;5.63;5.07;;;;;;;-143.84;64.81;45045.25;5071672;28;20444;-76
2022/05/29 04:14:01;;;;;;;5.70;4.80;;;;;;;-143.84;65.93;45030.03;5072267;28;20502;-77
2022/05/29 04:16:29;;;;;;;6.30;5.70;;;;;;;-143.84;66.91;45049.06;5072397;28;20792;-77
2022/05/29 04:18:56;;;;;;;5.90;5.30;;;;;;;-143.84;66.27;45064.31;5081390;28;20493;-77
2022/05/29 04:21:23;;;;;;;10.77;6.33;;;;;;;-143.84;66.77;45035.75;5092391;28;20422;-77
2022/05/29 04:23:51;;;;;;;6.40;5.73;;;;;;;-143.84;66.85;45022.41;5092357;28;20443;-76
2022/05/29 04:26:20;;;;;;;7.37;5.83;;;;;;;-143.84;67.39;45037.66;5093853;28;20808;-77
2022/05/29 04:28:47;;;;;;;6.77;5.43;;;;;;;-143.84;67.75;45035.75;5093778;28;20476;-78
2022/05/29 04:31:14;;;;;;;8.83;5.33;;;;;;;-143.84;67.60;45081.44;5093686;28;20443;-77
2022/05/29 04:33:41;;;;;;;5.07;4.67;;;;;;;-143.84;68.15;45054.78;5092431;28;21297;-77
2022/05/29 04:36:08;;;;;;;7.83;5.43;;;;;;;-143.84;68.46;45056.69;5091970;28;20432;-77
2022/05/29 04:38:35;;;;;;;5.70;4.20;;;;;;;-143.84;68.19;45026.22;5092912;28;20447;-77
2022/05/29 04:41:07;;;;;;;4.93;4.57;;;;;;;-143.84;66.44;45043.34;5092556;28;20443;-78
2022/05/29 04:43:36;;;;;;;4.77;4.40;;;;;;;-143.84;65.38;45030.03;5092614;28;20572;-77
2022/05/29 04:46:05;;;;;;;4.03;3.63;;;;;;;-143.84;63.22;45024.31;5092044;28;20440;-77
2022/05/29 04:48:32;;;;;;;3.93;3.60;;;;;;;-143.84;61.92;45050.97;5090199;28;20863;-75
2022/05/29 04:51:00;;;;;;;5.47;3.70;;;;;;;-143.84;60.68;45033.84;5089800;28;20925;-75
2022/05/29 04:53:28;;;;;;;6.53;3.30;;;;;;;-143.84;58.69;45022.41;5090908;28;20452;-76
2022/05/29 04:55:57;;;;;;;6.47;3.17;;;;;;;-143.84;56.69;45037.66;5070762;28;20958;-74
2022/05/29 04:58:26;;;;;;;9.00;4.03;;;;;;;-143.84;53.89;45012.88;5071489;28;20436;-74
2022/05/29 05:01:01;;;;;;;4.07;3.23;;;;;;;-143.84;51.58;44986.22;5070806;28;20452;-72
2022/05/29 05:03:30;;;;;;;2.50;2.40;;;;;;;-143.84;49.73;44999.56;5071433;28;20485;-77
2022/05/29 05:05:58;;;;;;;3.03;2.83;;;;;;;-143.84;49.96;45030.03;5070709;28;20527;-75
2022/05/29 05:08:26;;;;;;;7.00;3.17;;;;;;;-143.84;49.22;44995.75;5070670;28;20437;-74
2022/05/29 05:10:53;;;;;;;2.90;2.70;;;;;;;-143.84;48.29;45010.97;5070299;28;20441;-75
2022/05/29 05:13:20;;;;;;;4.00;2.97;;;;;;;-143.84;46.66;45001.47;5069622;28;20487;-75
2022/05/29 05:15:47;;;;;;;2.90;2.70;;;;;;;-143.84;47.12;45007.19;5069896;28;20441;-74
2022/05/29 05:18:16;;;;;;;2.90;2.70;;;;;;;-143.84;47.20;44980.53;5082029;28;20442;-74
2022/05/29 05:20:43;;;;;;;7.23;3.10;;;;;;;-143.84;45.23;45003.38;5089851;28;20436;-75
2022/05/29 05:23:10;;;;;;;7.27;2.37;;;;;;;-143.84;45.83;45003.38;5090189;28;20465;-74
2022/05/29 05:25:38;;;;;;;6.37;2.50;;;;;;;-143.84;45.71;44984.31;5090121;28;20440;-75
2022/05/29 05:28:06;;;;;;;4.53;2.47;;;;;;;-143.84;45.40;44971.00;5089817;28;20447;-74
2022/05/29 05:30:33;;;;;;;3.30;3.00;;;;;;;-143.84;45.62;44980.53;5088543;28;21020;-73
2022/05/29 05:33:01;;;;;;;3.60;2.90;;;;;;;-143.84;44.78;44976.72;5088806;28;20937;-72
2022/05/29 05:35:29;;;;;;;4.07;2.77;;;;;;;-143.84;44.43;44967.19;5088108;28;20485;-72
2022/05/29 05:37:57;;;;;;;3.30;2.40;;;;;;;-143.84;43.95;44946.25;5089563;28;20482;-73
2022/05/29 05:40:24;;;;;;;2.90;2.70;;;;;;;-143.84;43.89;44963.38;5089374;28;20450;-74
2022/05/29 05:42:51;;;;;;;5.30;2.13;;;;;;;-143.84;43.43;44990.03;5088170;28;20448;-73
2022/05/29 05:45:18;;;;;;;6.90;2.70;;;;;;;-143.84;43.82;44965.28;5088181;28;20512;-75
2022/05/29 05:47:46;;;;;;;6.23;2.37;;;;;;;-143.84;42.25;44976.72;5089343;28;20459;-75
2022/05/29 05:50:16;;;;;;;4.67;2.13;;;;;;;-143.84;42.68;44969.09;5088388;28;20495;-77
2022/05/29 05:52:45;;;;;;;2.67;1.83;;;;;;;-143.84;42.71;44963.38;5088390;28;20448;-73
2022/05/29 05:55:13;;;;;;;3.20;2.17;;;;;;;-143.84;43.44;44984.31;5088596;28;20506;-72
2022/05/29 05:57:41;;;;;;;6.80;2.80;;;;;;;-143.84;44.32;44942.44;5089496;28;20448;-73
2022/05/29 06:00:10;;;;;;;2.20;2.00;;;;;;;-143.84;44.53;44991.94;5090187;28;20436;-73
2022/05/29 06:02:40;;;;;;;6.30;2.70;;;;;;;-143.84;44.47;44967.19;5089821;28;21131;-73
2022/05/29 06:05:07;;;;;;;9.10;2.70;;;;;;;-143.84;45.20;44961.47;5088953;28;20435;-72
2022/05/29 06:07:34;;;;;;;4.57;2.20;;;;;;;-143.84;46.19;44976.72;5089389;28;20462;-73
2022/05/29 06:10:04;;;;;;;6.93;2.13;;;;;;;-143.84;46.13;44986.22;5089276;28;20985;-72
2022/05/29 06:12:31;;;;;;;5.37;2.07;;;;;;;-143.84;45.45;44951.97;5089519;28;20436;-74
2022/05/29 06:14:59;;;;;;;3.23;2.30;;;;;;;-143.84;43.62;44961.47;5089826;28;20467;-74
2022/05/29 06:17:28;;;;;;;4.93;2.10;;;;;;;-143.84;45.41;44957.66;5088877;28;20536;-74
2022/05/29 06:19:56;;;;;;;4.00;2.10;;;;;;;-143.84;42.85;44946.25;5088290;28;20448;-75
2022/05/29 06:22:23;;;;;;;4.30;1.73;;;;;;;-143.84;43.17;44978.63;5089575;28;20444;-75
2022/05/29 06:24:51;;;;;;;8.10;1.87;;;;;;;-143.84;42.21;44923.41;5088153;28;20455;-72
2022/05/29 06:27:20;;;;;;;6.40;2.10;;;;;;;-143.84;43.82;44951.97;5085920;28;20608;-73
2022/05/29 06:29:47;;;;;;;4.43;2.33;;;;;;;-143.84;44.52;44942.44;5087212;28;20483;-73
2022/05/29 06:32:15;;;;;;;6.80;2.40;;;;;;;-143.84;44.36;44957.66;5087247;28;20524;-76
2022/05/29 06:34:42;;;;;;;4.27;2.37;;;;;;;-143.84;44.85;44963.38;5087261;28;20452;-76
2022/05/29 06:37:09;;;;;;;8.37;1.97;;;;;;;-143.84;44.50;44948.16;5089460;28;20444;-78
2022/05/29 06:39:38;;;;;;;3.40;2.43;;;;;;;-143.84;45.11;44953.88;5089806;28;20452;-75
2022/05/29 06:42:06;;;;;;;3.00;2.70;;;;;;;-143.84;44.20;44948.16;5089121;28;20440;-75
2022/05/29 06:44:36;;;;;;;2.57;1.97;;;;;;;-143.84;43.38;44923.41;5091208;28;20452;-79
2022/05/29 06:47:07;;;;;;;5.13;2.20;;;;;;;-143.84;42.94;44946.25;5088295;28;20954;-79
2022/05/29 06:49:34;;;;;;;2.13;1.70;;;;;;;-143.84;44.40;44951.97;5086837;28;20502;-78
2022/05/29 06:52:01;;;;;;;4.50;1.90;;;;;;;-143.84;42.68;44919.59;5091343;28;20455;-81
2022/05/29 06:54:28;;;;;;;13.53;2.67;;;;;;;-143.84;40.91;44906.25;5091721;28;20448;-81
2022/05/29 06:56:55;;;;;;;5.70;2.10;;;;;;;-143.84;40.12;44923.41;5091821;28;20439;-81
2022/05/29 06:59:23;;;;;;;6.50;2.27;;;;;;;-143.84;40.26;44911.97;5091714;28;20448;-81
2022/05/29 07:07:27;;;;;;;3.40;2.37;;;;;;;-143.84;40.58;44898.66;5089024;28;20476;-76
2022/05/29 07:09:54;;;;;;;4.27;2.13;;;;;;;-143.84;39.26;44915.78;5089313;28;20475;-76
2022/05/29 07:12:26;;;;;;;4.30;2.60;;;;;;;-143.84;39.60;44896.75;5088723;28;20450;-75
2022/05/29 07:14:58;;;;;;;3.57;2.30;;;;;;;-143.84;38.83;44881.50;5088237;28;20450;-75
2022/05/29 07:17:27;;;;;;;2.60;2.40;;;;;;;-143.84;38.91;44921.50;5088524;28;20452;-75
2022/05/29 07:19:54;;;;;;;3.83;2.77;;;;;;;-143.84;39.20;44915.78;5088258;28;20463;-75
2022/05/29 07:22:22;;;;;;;6.10;2.73;;;;;;;-143.84;40.00;44911.97;5088754;28;20513;-76
2022/05/29 07:24:49;;;;;;;4.00;2.60;;;;;;;-143.84;39.83;44908.16;5085614;28;20440;-75
2022/05/29 07:27:17;;;;;;;6.40;2.87;;;;;;;-143.84;39.69;44948.16;5088184;28;20869;-74
2022/05/29 07:29:44;;;;;;;6.57;5.13;;;;;;;-143.84;39.29;44932.91;5088020;28;20483;-75
2022/05/29 07:32:12;;;;;;;9.53;4.70;;;;;;;-143.84;39.37;44904.34;5088563;28;21332;-75
2022/05/29 07:34:43;;;;;;;8.03;4.40;;;;;;;-143.84;39.24;44917.69;5087168;28;20424;-75
2022/05/29 07:37:14;;;;;;;4.83;3.10;;;;;;;-143.84;39.06;44934.81;5091727;28;20451;-74
2022/05/29 07:39:45;;;;;;;8.73;2.43;;;;;;;-143.84;39.40;44913.88;5091600;28;20517;-74
2022/05/29 07:44:59;;;;;;;3.10;2.27;;;;;;;-143.84;41.07;44917.69;5091386;28;21000;-76
2022/05/29 07:47:28;;;;;;;4.90;2.30;;;;;;;-143.84;41.76;44932.91;5089979;28;20447;-75
2022/05/29 07:49:57;;;;;;;2.97;2.67;;;;;;;-143.84;42.87;44953.88;5090348;28;20576;-74
2022/05/29 07:52:25;;;;;;;3.60;2.53;;;;;;;-143.84;43.39;44971.00;5092421;28;20447;-73
2022/05/29 07:54:52;;;;;;;4.50;2.53;;;;;;;-143.84;43.81;44948.16;5091749;28;20447;-73
2022/05/29 07:57:20;;;;;;;6.23;3.27;;;;;;;-143.84;44.21;44953.88;5092205;28;20812;-74
2022/05/29 07:59:47;;;;;;;5.00;3.13;;;;;;;-143.84;45.15;44972.91;5092205;28;20650;-73
2022/05/29 08:02:14;;;;;;;11.43;3.40;;;;;;;-143.84;45.94;44986.22;5091741;28;20448;-74
2022/05/29 08:04:43;;;;;;;10.00;3.13;;;;;;;-143.84;47.17;44980.53;5090816;28;20957;-74
2022/05/29 08:07:12;;;;;;;3.63;3.33;;;;;;;-143.84;49.20;44980.53;5087777;28;20443;-74
2022/05/29 08:09:39;;;;;;;6.17;3.50;;;;;;;-143.84;50.35;44984.31;5091233;28;20487;-74
2022/05/29 08:12:07;;;;;;;4.00;3.27;;;;;;;-143.84;50.11;45009.09;5091250;28;20510;-74
2022/05/29 08:14:34;;;;;;;3.53;2.77;;;;;;;-143.84;52.09;44991.94;5090709;28;20520;-73
2022/05/29 08:17:01;;;;;;;6.80;3.70;;;;;;;-143.84;53.86;44997.66;5091259;28;20806;-74
2022/05/29 08:19:29;;;;;;;5.63;2.90;;;;;;;-143.84;53.38;44995.75;5090054;28;20458;-74
2022/05/29 08:21:56;;;;;;;3.30;3.00;;;;;;;-143.84;53.75;44995.75;5090975;28;20529;-73
2022/05/29 08:32:38;;;;;;;17.17;3.80;;;;;;;-143.84;59.78;45001.47;5090779;28;20935;-74
2022/05/29 08:35:06;;;;;;;9.13;4.17;;;;;;;-143.84;60.96;45022.41;5090172;28;20448;-74
2022/05/29 08:37:34;;;;;;;6.17;3.90;;;;;;;-143.84;63.25;45001.47;5090562;28;20455;-74
2022/05/29 08:40:04;;;;;;;9.07;4.20;;;;;;;-143.84;63.36;45039.53;5090230;28;20440;-73
2022/05/29 08:42:32;;;;;;;8.03;4.40;;;;;;;-143.84;62.88;45012.88;5090009;28;20459;-73
2022/05/29 08:45:00;;;;;;;5.93;3.90;;;;;;;-143.84;61.89;45022.41;5090111;28;20444;-74
2022/05/29 08:47:29;;;;;;;9.13;4.23;;;;;;;-143.84;62.03;45018.59;5086581;28;20452;-73
2022/05/29 08:49:57;;;;;;;9.87;3.90;;;;;;;-143.84;62.64;44991.94;5088287;28;20495;-73
2022/05/29 08:52:43;;;;;;;5.53;4.00;;;;;;;-143.84;63.79;45010.97;5088149;28;20447;-73
2022/05/29 08:55:16;;;;;;;10.17;4.33;;;;;;;-143.84;64.82;45020.50;5088505;28;20444;-73
2022/05/29 08:58:06;;;;;;;9.53;4.30;;;;;;;-143.84;65.32;45016.69;5086911;28;20448;-72
2022/05/29 09:00:47;;;;;;;9.27;4.40;;;;;;;-143.84;64.59;45028.13;5088960;28;20934;-73
2022/05/29 09:03:36;;;;;;;8.70;4.63;;;;;;;-143.84;64.52;45014.78;5086936;28;20443;-73
2022/05/29 09:06:08;;;;;;;11.83;5.43;;;;;;;-143.84;64.60;45026.22;5081191;28;20467;-73
2022/05/29 09:08:41;;;;;;;11.30;4.43;;;;;;;-143.84;63.93;45018.59;5089410;28;20455;-72
2022/05/29 09:11:16;;;;;;;11.23;4.60;;;;;;;-143.84;64.69;45024.31;5086588;28;20472;-73
2022/05/29 09:13:50;;;;;;;19.67;4.70;;;;;;;-143.84;63.70;45028.13;5087108;28;20459;-72
2022/05/29 09:16:22;;;;;;;18.80;12.13;;;;;;;-143.84;63.71;44991.94;5089280;28;20462;-73
2022/05/29 09:18:57;;;;;;;35.17;18.30;;;;;;;-143.84;62.85;45003.38;5090258;28;20452;-74
2022/05/29 09:21:32;;;;;;;20.70;8.60;;;;;;;-143.84;63.14;44988.13;5090636;28;21312;-73
2022/05/29 09:24:06;;;;;;;11.20;4.60;;;;;;;-143.84;60.96;45020.50;5090673;28;20447;-75
2022/05/29 09:26:38;;;;;;;15.87;5.33;;;;;;;-143.84;61.89;45010.97;5091865;28;20439;-74
2022/05/29 09:29:07;;;;;;;9.03;4.60;;;;;;;-143.84;61.45;45007.19;5090614;28;20455;-75
2022/05/29 09:31:34;;;;;;;9.13;5.30;;;;;;;-143.84;61.75;45022.41;5090768;28;20483;-75
2022/05/29 09:34:02;;;;;;;5.50;4.43;;;;;;;-143.84;61.21;45007.19;5090488;28;20440;-74
2022/05/29 09:36:36;;;;;;;10.93;4.40;;;;;;;-143.84;60.02;44997.66;5088177;28;20451;-73
2022/05/29 09:39:10;;;;;;;11.50;4.20;;;;;;;-143.84;58.45;45014.78;5088929;28;20984;-73
2022/05/29 09:41:43;;;;;;;17.60;4.03;;;;;;;-143.84;56.35;45012.88;5089876;28;20440;-73
2022/05/29 09:44:14;;;;;;;8.53;4.80;;;;;;;-143.84;55.16;45012.88;5089858;28;20498;-74
2022/05/29 09:46:43;;;;;;;11.00;4.70;;;;;;;-143.84;56.90;44984.31;5089401;28;20957;-72
2022/05/29 09:52:12;;;;;;;13.90;4.87;;;;;;;-143.84;55.39;44988.13;5089217;28;20475;-73
2022/05/29 09:54:44;;;;;;;6.93;4.87;;;;;;;-143.84;56.25;44997.66;5090117;28;21048;-73
2022/05/29 09:57:15;;;;;;;9.40;3.37;;;;;;;-143.84;53.41;44993.84;5089083;28;20527;-73
2022/05/29 09:59:46;;;;;;;5.07;4.20;;;;;;;-143.84;54.19;45003.38;5087912;28;20459;-73
2022/05/29 10:02:25;;;;;;;8.80;4.20;;;;;;;-143.84;53.49;44993.84;5088431;28;20455;-72
2022/05/29 10:04:54;;;;;;;10.37;4.60;;;;;;;-143.84;53.99;44980.53;5087717;28;20487;-73
2022/05/29 10:07:32;;;;;;;8.17;3.80;;;;;;;-143.84;50.93;44972.91;5088278;28;21075;-73
2022/05/29 10:10:02;;;;;;;9.60;4.83;;;;;;;-143.84;52.64;44978.63;5087335;28;20530;-72
2022/05/29 10:12:52;;;;;;;7.93;3.77;;;;;;;-143.84;50.34;44988.13;5088287;28;20448;-73
2022/05/29 10:15:37;;;;;;;9.67;3.93;;;;;;;-143.84;50.90;44978.63;5084279;28;20463;-73
2022/05/29 10:18:11;;;;;;;14.53;3.50;;;;;;;-143.84;49.71;44986.22;5087676;28;20440;-73
2022/05/29 10:20:40;;;;;;;7.03;3.40;;;;;;;-143.84;49.84;44988.13;5087094;28;20444;-73
2022/05/29 10:23:10;;;;;;;5.33;2.87;;;;;;;-143.84;48.10;44993.84;5086646;28;20451;-73
2022/05/29 10:25:41;;;;;;;3.80;3.10;;;;;;;-143.84;47.64;44984.31;5086569;28;20452;-73
2022/05/29 10:28:15;;;;;;;4.30;3.30;;;;;;;-143.84;47.55;44976.72;5086696;28;20448;-73
2022/05/29 10:30:48;;;;;;;11.03;4.40;;;;;;;-143.84;48.74;44986.22;5086998;28;20486;-73
2022/05/29 10:33:22;;;;;;;14.83;4.07;;;;;;;-143.84;47.48;44980.53;5088465;28;20460;-73
2022/05/29 10:35:51;;;;;;;4.40;3.63;;;;;;;-143.84;46.52;44955.75;5088672;28;20447;-73
2022/05/29 10:38:28;;;;;;;5.30;3.60;;;;;;;-143.84;47.43;44984.31;5088695;28;20444;-73
2022/05/29 10:40:57;;;;;;;4.93;3.70;;;;;;;-143.84;46.42;44969.09;5087500;28;20516;-73
2022/05/29 10:43:47;;;;;;;6.93;5.30;;;;;;;-143.84;45.58;44984.31;5088118;28;20444;-73
2022/05/29 10:46:17;;;;;;;6.03;4.07;;;;;;;-143.84;46.46;44988.13;5086270;28;20462;-73
2022/05/29 10:49:22;;;;;;;5.00;3.40;;;;;;;-143.84;47.16;44976.72;5088120;28;20479;-72
2022/05/29 10:52:18;;;;;;;6.80;4.50;;;;;;;-143.84;46.86;44972.91;5050607;28;20522;-72
2022/05/29 10:55:23;;;;;;;6.37;4.73;;;;;;;-143.84;49.02;44991.94;5087234;28;20833;-73
2022/05/29 10:58:31;;;;;;;4.43;4.03;;;;;;;-143.84;49.31;44991.94;5088809;28;20459;-73
2022/05/29 11:04:10;;;;;;;2.83;2.60;;;;;;;-143.84;44.74;44976.72;5089313;28;20448;-74
2022/05/29 11:06:58;;;;;;;3.10;2.90;;;;;;;-143.84;46.72;44984.31;5086899;28;20489;-74
2022/05/29 11:09:45;;;;;;;3.63;2.90;;;;;;;-143.84;46.24;44991.94;5088221;28;20953;-74
2022/05/29 11:12:23;;;;;;;7.63;3.27;;;;;;;-143.84;45.70;44967.19;5089335;28;20544;-72
2022/05/29 11:15:10;;;;;;;10.40;3.80;;;;;;;-143.84;45.30;44999.56;5089867;28;20831;-73
2022/05/29 11:17:52;;;;;;;6.57;3.77;;;;;;;-143.84;46.06;44976.72;5091826;28;20444;-72
2022/05/29 11:20:41;;;;;;;4.97;3.30;;;;;;;-143.84;45.16;44980.53;5091147;28;21006;-72
2022/05/29 11:23:21;;;;;;;11.17;4.50;;;;;;;-143.84;47.01;44991.94;5090901;28;20448;-71
2022/05/29 11:25:58;;;;;;;11.47;4.30;;;;;;;-143.84;48.04;44988.13;5088154;28;20455;-72
2022/05/29 11:28:49;;;;;;;7.23;4.13;;;;;;;-143.84;48.41;44984.31;5091113;28;20451;-72
2022/05/29 11:31:32;;;;;;;11.83;4.70;;;;;;;-143.84;48.77;44976.72;5091781;28;20515;-72
2022/05/29 11:34:25;;;;;;;4.20;3.80;;;;;;;-143.84;49.95;44984.31;5091090;28;20459;-72
2022/05/29 11:37:05;;;;;;;6.73;4.40;;;;;;;-143.84;52.71;45003.38;5091428;28;20893;-72
2022/05/29 11:39:39;;;;;;;8.40;4.30;;;;;;;-143.84;52.27;44980.53;5091430;28;20570;-71
2022/05/29 11:42:15;;;;;;;14.57;4.33;;;;;;;-143.84;53.32;44999.56;5089549;28;20455;-71
2022/05/29 11:44:51;;;;;;;6.03;4.10;;;;;;;-143.84;54.15;44976.72;5090643;28;20822;-71
2022/05/29 11:53:12;;;;;;;4.90;3.97;;;;;;;-143.84;53.91;44976.72;5090995;28;20845;-71
2022/05/29 11:55:43;;;;;;;12.33;3.90;;;;;;;-143.84;54.84;44971.00;5089156;28;20991;-71
2022/05/29 11:58:17;;;;;;;8.33;4.17;;;;;;;-143.84;54.78;44980.53;5090955;28;20439;-72
2022/05/29 12:00:48;;;;;;;6.50;5.13;;;;;;;-143.84;55.50;44982.41;5092768;28;20458;-79
2022/05/29 12:03:24;;;;;;;6.90;4.10;;;;;;;-143.84;54.34;45007.19;5093720;28;20497;-79
2022/05/29 12:06:00;;;;;;;7.63;3.73;;;;;;;-143.84;53.80;44988.13;5093941;28;20448;-79
2022/05/29 12:08:34;;;;;;;5.43;4.40;;;;;;;-143.84;54.30;44986.22;5094033;28;20457;-79
2022/05/29 12:11:10;;;;;;;7.50;4.83;;;;;;;-143.84;54.78;44993.84;5093035;28;20487;-79
2022/05/29 12:13:44;;;;;;;5.67;4.37;;;;;;;-143.84;52.77;45014.78;5093895;28;20447;-79